createdAt,value
2024-05-09T00:00:22.514Z,10.2967
2024-05-09T00:01:18.931Z,10.3221
2024-05-09T00:02:19.790Z,10.3661
2024-05-09T00:03:22.305Z,10.3509
2024-05-09T00:04:22.234Z,10.3431
2024-05-09T00:05:24.431Z,10.3944
2024-05-09T00:06:24.375Z,10.3897
2024-05-09T00:07:26.423Z,10.3797
2024-05-09T00:08:28.827Z,10.3656
2024-05-09T00:09:31.022Z,10.3571
2024-05-09T00:10:36.970Z,10.3143
2024-05-09T00:11:34.145Z,10.3291
2024-05-09T00:12:36.326Z,10.2931
2024-05-09T00:13:38.506Z,10.2526
2024-05-09T00:14:40.748Z,10.2498
2024-05-09T00:15:42.905Z,10.2616
2024-05-09T00:16:45.086Z,10.2476
2024-05-09T00:17:47.417Z,10.2217
2024-05-09T00:18:47.467Z,10.2226
2024-05-09T00:19:48.991Z,10.2531
2024-05-09T00:20:49.789Z,10.2711
2024-05-09T00:21:49.574Z,10.1882
2024-05-09T00:22:51.776Z,10.1782
2024-05-09T00:23:52.351Z,10.1881
2024-05-09T00:24:53.238Z,10.1710
2024-05-09T00:25:55.427Z,10.1607
2024-05-09T00:26:57.629Z,10.1409
2024-05-09T00:27:59.820Z,10.1092
2024-05-09T00:29:02.219Z,10.1077
2024-05-09T00:30:04.207Z,10.0867
2024-05-09T00:31:04.175Z,10.0871
2024-05-09T00:32:06.414Z,10.0819
2024-05-09T00:33:07.859Z,10.1165
2024-05-09T00:34:07.094Z,10.1038
2024-05-09T00:35:07.055Z,10.0895
2024-05-09T00:36:09.346Z,10.0362
2024-05-09T00:37:11.553Z,10.0554
2024-05-09T00:38:13.780Z,10.0524
2024-05-09T00:39:15.987Z,10.0698
2024-05-09T00:40:26.568Z,10.0707
2024-05-09T00:41:19.928Z,10.0476
2024-05-09T00:42:19.844Z,10.0677
2024-05-09T00:43:22.070Z,10.0751
2024-05-09T00:44:24.518Z,10.0507
2024-05-09T00:45:24.503Z,10.0812
2024-05-09T00:46:24.487Z,10.0394
2024-05-09T00:47:26.886Z,10.0690
2024-05-09T00:48:27.188Z,10.0844
2024-05-09T00:49:28.520Z,10.0778
2024-05-09T00:50:35.230Z,10.0809
2024-05-09T00:51:29.411Z,10.1259
2024-05-09T00:52:31.612Z,10.1325
2024-05-09T00:53:33.950Z,10.1350
2024-05-09T00:54:33.938Z,10.1279
2024-05-09T00:55:36.150Z,10.0870
2024-05-09T00:56:36.283Z,10.1140
2024-05-09T00:57:38.580Z,10.0747
2024-05-09T00:58:40.800Z,10.0984
2024-05-09T00:59:43.018Z,10.1071
2024-05-09T01:00:45.422Z,10.1509
2024-05-09T01:01:48.407Z,10.1403
2024-05-09T01:02:48.357Z,10.1395
2024-05-09T01:03:51.672Z,10.1651
2024-05-09T01:04:51.996Z,10.1402
2024-05-09T01:05:52.032Z,10.1206
2024-05-09T01:06:52.006Z,10.1250
2024-05-09T01:07:54.158Z,10.1645
2024-05-09T01:08:56.437Z,10.1686
2024-05-09T01:09:58.776Z,10.1881
2024-05-09T01:11:01.386Z,10.1967
2024-05-09T01:12:02.523Z,10.2204
2024-05-09T01:13:02.868Z,10.2174
2024-05-09T01:14:05.202Z,10.2258
2024-05-09T01:15:07.521Z,10.2097
2024-05-09T01:16:12.821Z,10.2255
2024-05-09T01:17:11.307Z,10.2181
2024-05-09T01:18:12.477Z,10.2061
2024-05-09T01:19:13.789Z,10.1987
2024-05-09T01:20:20.052Z,10.2544
2024-05-09T01:21:14.968Z,10.2507
2024-05-09T01:22:14.927Z,10.2226
2024-05-09T01:23:17.224Z,10.2494
2024-05-09T01:24:17.926Z,10.3026
2024-05-09T01:25:20.265Z,10.2911
2024-05-09T01:26:22.387Z,10.2605
2024-05-09T01:27:24.724Z,10.2579
2024-05-09T01:28:26.792Z,10.2415
2024-05-09T01:29:29.166Z,10.2426
2024-05-09T01:30:35.111Z,10.2293
2024-05-09T01:31:32.222Z,10.2489
2024-05-09T01:32:34.649Z,10.2556
2024-05-09T01:33:34.724Z,10.2560
2024-05-09T01:34:34.622Z,10.2352
2024-05-09T01:35:36.962Z,10.2687
2024-05-09T01:36:36.766Z,10.2867
2024-05-09T01:37:39.857Z,10.3334
2024-05-09T01:38:39.624Z,10.3093
2024-05-09T01:39:41.704Z,10.2557
2024-05-09T01:40:43.937Z,10.2708
2024-05-09T01:41:46.181Z,10.2630
2024-05-09T01:42:48.429Z,10.2955
2024-05-09T01:43:50.604Z,10.3010
2024-05-09T01:44:52.760Z,10.2622
2024-05-09T01:45:54.926Z,10.2600
2024-05-09T01:46:57.247Z,10.2745
2024-05-09T01:47:59.741Z,10.3109
2024-05-09T01:48:59.833Z,10.3279
2024-05-09T01:49:59.745Z,10.3433
2024-05-09T01:51:01.949Z,10.3351
2024-05-09T01:52:01.936Z,10.2802
2024-05-09T01:53:04.161Z,10.3015
2024-05-09T01:54:06.464Z,10.2869
2024-05-09T01:55:08.554Z,10.2616
2024-05-09T01:56:10.795Z,10.3031
2024-05-09T01:57:12.847Z,10.2927
2024-05-09T01:58:15.110Z,10.3669
2024-05-09T01:59:17.252Z,10.3030
2024-05-09T02:00:30.157Z,10.2838
2024-05-09T02:01:20.303Z,10.3024
2024-05-09T02:02:22.627Z,10.2869
2024-05-09T02:03:25.038Z,10.2955
2024-05-09T02:04:25.051Z,10.3340
2024-05-09T02:05:25.029Z,10.3594
2024-05-09T02:06:27.099Z,10.2988
2024-05-09T02:07:29.190Z,10.2835
2024-05-09T02:08:31.490Z,10.3252
2024-05-09T02:09:31.533Z,10.3164
2024-05-09T02:10:33.875Z,10.3212
2024-05-09T02:11:33.996Z,10.3192
2024-05-09T02:12:33.877Z,10.3113
2024-05-09T02:13:33.740Z,10.3032
2024-05-09T02:14:36.054Z,10.3158
2024-05-09T02:15:37.022Z,10.3585
2024-05-09T02:16:39.374Z,10.4106
2024-05-09T02:17:40.511Z,10.3916
2024-05-09T02:18:40.586Z,10.3820
2024-05-09T02:19:41.430Z,10.3751
2024-05-09T02:20:44.148Z,10.4228
2024-05-09T02:21:44.121Z,10.4243
2024-05-09T02:22:46.386Z,10.4068
2024-05-09T02:23:46.372Z,10.4196
2024-05-09T02:24:48.540Z,10.4573
2024-05-09T02:25:50.738Z,10.4586
2024-05-09T02:26:52.888Z,10.4764
2024-05-09T02:27:55.056Z,10.4542
2024-05-09T02:28:57.323Z,10.4523
2024-05-09T02:29:59.492Z,10.5020
2024-05-09T02:31:01.698Z,10.4919
2024-05-09T02:32:02.977Z,10.4746
2024-05-09T02:33:03.463Z,10.4771
2024-05-09T02:34:03.420Z,10.4837
2024-05-09T02:35:03.423Z,10.4851
2024-05-09T02:36:03.365Z,10.5065
2024-05-09T02:37:05.734Z,10.5327
2024-05-09T02:38:06.692Z,10.5534
2024-05-09T02:39:06.756Z,10.5103
2024-05-09T02:40:14.273Z,10.5263
2024-05-09T02:41:10.083Z,10.5510
2024-05-09T02:42:12.333Z,10.5686
2024-05-09T02:43:14.566Z,10.5982
2024-05-09T02:44:16.896Z,10.5942
2024-05-09T02:45:16.807Z,10.5856
2024-05-09T02:46:19.172Z,10.5109
2024-05-09T02:47:21.757Z,10.4996
2024-05-09T02:48:21.821Z,10.5403
2024-05-09T02:49:24.221Z,10.5104
2024-05-09T02:50:33.060Z,10.5065
2024-05-09T02:51:26.870Z,10.4914
2024-05-09T02:52:27.293Z,10.5155
2024-05-09T02:53:27.157Z,10.5226
2024-05-09T02:54:29.323Z,10.5293
2024-05-09T02:55:31.605Z,10.4976
2024-05-09T02:56:34.045Z,10.4934
2024-05-09T02:57:36.174Z,10.4729
2024-05-09T02:58:38.440Z,10.4991
2024-05-09T02:59:40.730Z,10.4914
2024-05-09T03:00:42.831Z,10.4383
2024-05-09T03:01:42.492Z,10.4060
2024-05-09T03:02:42.735Z,10.3785
2024-05-09T03:03:42.730Z,10.4040
2024-05-09T03:04:42.759Z,10.4327
2024-05-09T03:05:45.394Z,10.4106
2024-05-09T03:06:45.457Z,10.4198
2024-05-09T03:07:46.409Z,10.4119
2024-05-09T03:08:46.270Z,10.4432
2024-05-09T03:09:48.389Z,10.4099
2024-05-09T03:10:50.584Z,10.4195
2024-05-09T03:11:52.981Z,10.4354
2024-05-09T03:12:52.928Z,10.4469
2024-05-09T03:13:55.099Z,10.4735
2024-05-09T03:14:57.200Z,10.4236
2024-05-09T03:15:59.537Z,10.4003
2024-05-09T03:17:01.915Z,10.4064
2024-05-09T03:18:02.142Z,10.3747
2024-05-09T03:19:02.465Z,10.3822
2024-05-09T03:20:05.110Z,10.3628
2024-05-09T03:21:04.355Z,10.3720
2024-05-09T03:22:06.660Z,10.3754
2024-05-09T03:23:06.795Z,10.4258
2024-05-09T03:24:09.167Z,10.4368
2024-05-09T03:25:11.351Z,10.3841
2024-05-09T03:26:13.665Z,10.3310
2024-05-09T03:27:15.908Z,10.2884
2024-05-09T03:28:15.763Z,10.2705
2024-05-09T03:29:18.078Z,10.3068
2024-05-09T03:30:29.289Z,10.3255
2024-05-09T03:31:18.947Z,10.2928
2024-05-09T03:32:21.488Z,10.3237
2024-05-09T03:33:21.835Z,10.3456
2024-05-09T03:34:22.058Z,10.2820
2024-05-09T03:35:25.005Z,10.2792
2024-05-09T03:36:24.993Z,10.2578
2024-05-09T03:37:25.464Z,10.2485
2024-05-09T03:38:26.242Z,10.2575
2024-05-09T03:39:28.530Z,10.2605
2024-05-09T03:40:31.401Z,10.2665
2024-05-09T03:41:31.480Z,10.2810
2024-05-09T03:42:31.932Z,10.2669
2024-05-09T03:43:31.822Z,10.2935
2024-05-09T03:44:34.217Z,10.2943
2024-05-09T03:45:34.191Z,10.2640
2024-05-09T03:46:36.417Z,10.2559
2024-05-09T03:47:38.848Z,10.2654
2024-05-09T03:48:38.968Z,10.2685
2024-05-09T03:49:41.206Z,10.2888
2024-05-09T03:50:43.610Z,10.2569
2024-05-09T03:51:44.082Z,10.2640
2024-05-09T03:52:44.024Z,10.2705
2024-05-09T03:53:44.273Z,10.2267
2024-05-09T03:54:46.434Z,10.2333
2024-05-09T03:55:48.620Z,10.2804
2024-05-09T03:56:50.938Z,10.3038
2024-05-09T03:57:53.271Z,10.2922
2024-05-09T03:58:55.592Z,10.2536
2024-05-09T03:59:57.744Z,10.2345
2024-05-09T04:01:00.963Z,10.2558
2024-05-09T04:02:01.995Z,10.2634
2024-05-09T04:03:02.330Z,10.2975
2024-05-09T04:04:02.510Z,10.3018
2024-05-09T04:05:04.893Z,10.3284
2024-05-09T04:06:05.411Z,10.3365
2024-05-09T04:07:05.273Z,10.3487
2024-05-09T04:08:07.710Z,10.3351
2024-05-09T04:09:07.639Z,10.3859
2024-05-09T04:10:16.994Z,10.3829
2024-05-09T04:11:10.992Z,10.3568
2024-05-09T04:12:12.023Z,10.3306
2024-05-09T04:13:13.015Z,10.3845
2024-05-09T04:14:15.293Z,10.3614
2024-05-09T04:15:15.580Z,10.3899
2024-05-09T04:16:17.755Z,10.3793
2024-05-09T04:17:20.595Z,10.3550
2024-05-09T04:18:22.442Z,10.3737
2024-05-09T04:19:24.640Z,10.3566
2024-05-09T04:20:33.909Z,10.4060
2024-05-09T04:21:25.563Z,10.4270
2024-05-09T04:22:27.718Z,10.4613
2024-05-09T04:23:30.009Z,10.4856
2024-05-09T04:24:29.998Z,10.4592
2024-05-09T04:25:32.275Z,10.4175
2024-05-09T04:26:34.627Z,10.3935
2024-05-09T04:27:37.832Z,10.4108
2024-05-09T04:28:37.707Z,10.4001
2024-05-09T04:29:40.028Z,10.3997
2024-05-09T04:30:42.684Z,10.4253
2024-05-09T04:31:43.022Z,10.4174
2024-05-09T04:32:45.427Z,10.3954
2024-05-09T04:33:46.732Z,10.4044
2024-05-09T04:34:46.752Z,10.4343
2024-05-09T04:35:48.999Z,10.4367
2024-05-09T04:36:51.180Z,10.4269
2024-05-09T04:37:51.469Z,10.3969
2024-05-09T04:38:53.677Z,10.4420
2024-05-09T04:39:55.920Z,10.4665
2024-05-09T04:40:58.103Z,10.4461
2024-05-09T04:42:00.293Z,10.4889
2024-05-09T04:43:02.382Z,10.4650
2024-05-09T04:44:04.548Z,10.4410
2024-05-09T04:45:06.692Z,10.4838
2024-05-09T04:46:08.902Z,10.4901
2024-05-09T04:47:11.986Z,10.4619
2024-05-09T04:48:12.177Z,10.4905
2024-05-09T04:49:12.106Z,10.4949
2024-05-09T04:50:21.182Z,10.4922
2024-05-09T04:51:15.381Z,10.4815
2024-05-09T04:52:18.376Z,10.5113
2024-05-09T04:53:18.428Z,10.4536
2024-05-09T04:54:26.209Z,10.4909
2024-05-09T04:55:19.449Z,10.4799
2024-05-09T04:56:21.644Z,10.4524
2024-05-09T04:57:23.880Z,10.4206
2024-05-09T04:58:25.980Z,10.4555
2024-05-09T04:59:28.328Z,10.4955
2024-05-09T05:00:35.035Z,10.4871
2024-05-09T05:01:29.292Z,10.4914
2024-05-09T05:02:31.616Z,10.5277
2024-05-09T05:03:34.036Z,10.4995
2024-05-09T05:04:33.998Z,10.4917
2024-05-09T05:05:36.266Z,10.5228
2024-05-09T05:06:38.544Z,10.5610
2024-05-09T05:07:40.648Z,10.6121
2024-05-09T05:08:42.863Z,10.5824
2024-05-09T05:09:45.024Z,10.5720
2024-05-09T05:10:47.945Z,10.5942
2024-05-09T05:11:49.572Z,10.6208
2024-05-09T05:12:51.521Z,10.6091
2024-05-09T05:13:52.475Z,10.5765
2024-05-09T05:14:54.957Z,10.5554
2024-05-09T05:15:54.860Z,10.5318
2024-05-09T05:16:55.772Z,10.5459
2024-05-09T05:17:55.884Z,10.5758
2024-05-09T05:18:56.130Z,10.5744
2024-05-09T05:19:57.250Z,10.6079
2024-05-09T05:20:57.397Z,10.5895
2024-05-09T05:21:57.448Z,10.5767
2024-05-09T05:22:58.256Z,10.6199
2024-05-09T05:24:00.560Z,10.6336
2024-05-09T05:25:02.877Z,10.6480
2024-05-09T05:26:03.305Z,10.6890
2024-05-09T05:27:04.240Z,10.7016
2024-05-09T05:28:06.568Z,10.6835
2024-05-09T05:29:08.905Z,10.6690
2024-05-09T05:30:17.628Z,10.6648
2024-05-09T05:31:13.097Z,10.6998
2024-05-09T05:32:13.194Z,10.6928
2024-05-09T05:33:13.582Z,10.6614
2024-05-09T05:34:14.123Z,10.6390
2024-05-09T05:35:16.401Z,10.6299
2024-05-09T05:36:16.346Z,10.6152
2024-05-09T05:37:18.505Z,10.6314
2024-05-09T05:38:24.827Z,10.6367
2024-05-09T05:39:21.866Z,10.6327
2024-05-09T05:40:32.356Z,10.6205
2024-05-09T05:41:25.452Z,10.6526
2024-05-09T05:42:25.753Z,10.7409
2024-05-09T05:43:28.035Z,10.7595
2024-05-09T05:44:30.432Z,10.7239
2024-05-09T05:45:30.358Z,10.7184
2024-05-09T05:46:32.683Z,10.7980
2024-05-09T05:47:35.218Z,10.8159
2024-05-09T05:48:35.331Z,10.8184
2024-05-09T05:49:37.820Z,10.7631
2024-05-09T05:50:38.779Z,10.7465
2024-05-09T05:51:38.954Z,10.7618
2024-05-09T05:52:41.245Z,10.7056
2024-05-09T05:53:42.288Z,10.6979
2024-05-09T05:54:42.282Z,10.6840
2024-05-09T05:55:44.718Z,10.6903
2024-05-09T05:56:44.996Z,10.7461
2024-05-09T05:57:45.135Z,10.8013
2024-05-09T05:58:47.378Z,10.7740
2024-05-09T05:59:49.677Z,10.7569
2024-05-09T06:00:52.413Z,10.7847
2024-05-09T06:01:52.365Z,10.7565
2024-05-09T06:02:52.462Z,10.7367
2024-05-09T06:03:53.484Z,10.7136
2024-05-09T06:04:54.046Z,10.7514
2024-05-09T06:05:54.120Z,10.7747
2024-05-09T06:06:56.353Z,10.7442
2024-05-09T06:07:58.698Z,10.7520
2024-05-09T06:08:58.982Z,10.7914
2024-05-09T06:10:01.280Z,10.8191
2024-05-09T06:11:03.751Z,10.8572
2024-05-09T06:12:03.831Z,10.8673
2024-05-09T06:13:05.365Z,10.9163
2024-05-09T06:14:05.282Z,10.9002
2024-05-09T06:15:07.649Z,10.9199
2024-05-09T06:16:09.959Z,10.9950
2024-05-09T06:17:12.399Z,11.0195
2024-05-09T06:18:13.014Z,10.9923
2024-05-09T06:19:13.218Z,11.0000
2024-05-09T06:20:20.560Z,11.0654
2024-05-09T06:21:15.482Z,11.1664
2024-05-09T06:22:15.960Z,11.1212
2024-05-09T06:23:18.214Z,11.1469
2024-05-09T06:24:18.598Z,11.1953
2024-05-09T06:25:20.839Z,11.2395
2024-05-09T06:26:23.223Z,11.2672
2024-05-09T06:27:23.963Z,11.3987
2024-05-09T06:28:23.788Z,11.5152
2024-05-09T06:29:26.144Z,11.4289
2024-05-09T06:30:34.902Z,11.4383
2024-05-09T06:31:27.010Z,11.4847
2024-05-09T06:32:29.321Z,11.5036
2024-05-09T06:33:29.585Z,11.5496
2024-05-09T06:34:29.783Z,11.6466
2024-05-09T06:35:29.858Z,11.6104
2024-05-09T06:36:30.402Z,11.7498
2024-05-09T06:37:30.303Z,11.6992
2024-05-09T06:38:32.591Z,11.6822
2024-05-09T06:39:32.543Z,11.8520
2024-05-09T06:40:38.323Z,11.8495
2024-05-09T06:41:35.849Z,11.7959
2024-05-09T06:42:38.070Z,11.7461
2024-05-09T06:43:40.131Z,11.7458
2024-05-09T06:44:42.291Z,11.7846
2024-05-09T06:45:44.481Z,11.7670
2024-05-09T06:46:46.868Z,11.7897
2024-05-09T06:47:46.954Z,11.9492
2024-05-09T06:48:50.503Z,12.0170
2024-05-09T06:49:50.623Z,12.0079
2024-05-09T06:50:50.726Z,12.1063
2024-05-09T06:51:50.751Z,12.2737
2024-05-09T06:52:52.915Z,12.3587
2024-05-09T06:53:55.067Z,12.3709
2024-05-09T06:54:57.356Z,12.3533
2024-05-09T06:55:59.630Z,12.2730
2024-05-09T06:57:01.932Z,12.3136
2024-05-09T06:58:03.993Z,12.2421
2024-05-09T06:59:06.325Z,12.3416
2024-05-09T07:00:15.466Z,12.3274
2024-05-09T07:01:09.600Z,12.2365
2024-05-09T07:02:09.635Z,12.1267
2024-05-09T07:03:10.078Z,12.1007
2024-05-09T07:04:11.303Z,12.1472
2024-05-09T07:05:11.627Z,12.1770
2024-05-09T07:06:11.656Z,12.1811
2024-05-09T07:07:14.045Z,12.1896
2024-05-09T07:08:16.554Z,12.1398
2024-05-09T07:09:16.789Z,12.1691
2024-05-09T07:10:22.143Z,12.2345
2024-05-09T07:11:18.025Z,12.1850
2024-05-09T07:12:19.090Z,12.1652
2024-05-09T07:13:19.107Z,12.0503
2024-05-09T07:14:21.552Z,12.0951
2024-05-09T07:15:21.795Z,12.1219
2024-05-09T07:16:21.800Z,12.1542
2024-05-09T07:17:24.240Z,12.1117
2024-05-09T07:18:24.504Z,12.0711
2024-05-09T07:19:25.012Z,12.0302
2024-05-09T07:20:32.491Z,11.9821
2024-05-09T07:21:26.093Z,12.0295
2024-05-09T07:22:25.976Z,12.0989
2024-05-09T07:23:26.044Z,12.2222
2024-05-09T07:24:26.042Z,12.2934
2024-05-09T07:25:28.369Z,12.2004
2024-05-09T07:26:28.329Z,12.1424
2024-05-09T07:27:29.916Z,12.1168
2024-05-09T07:28:30.073Z,12.2747
2024-05-09T07:29:34.714Z,12.1843
2024-05-09T07:30:34.765Z,12.1728
2024-05-09T07:31:35.162Z,12.1160
2024-05-09T07:32:37.567Z,12.1956
2024-05-09T07:33:38.570Z,12.2417
2024-05-09T07:34:38.634Z,12.2272
2024-05-09T07:35:38.839Z,12.1809
2024-05-09T07:36:39.886Z,12.2689
2024-05-09T07:37:42.215Z,12.3243
2024-05-09T07:38:42.242Z,12.3565
2024-05-09T07:39:42.552Z,12.4091
2024-05-09T07:40:42.575Z,12.3811
2024-05-09T07:41:44.912Z,12.3617
2024-05-09T07:42:44.995Z,12.2740
2024-05-09T07:43:47.329Z,12.3330
2024-05-09T07:44:49.573Z,12.2749
2024-05-09T07:45:54.468Z,12.2116
2024-05-09T07:48:13.727Z,12.2255
2024-05-09T07:50:34.746Z,12.2421
2024-05-09T07:53:22.002Z,12.3969
2024-05-09T07:54:01.395Z,12.4419
2024-05-09T07:55:02.035Z,12.3147
2024-05-09T07:56:02.171Z,12.4810
2024-05-09T07:57:03.385Z,12.3863
2024-05-09T07:58:03.485Z,12.3913
2024-05-09T07:59:05.812Z,12.5934
2024-05-09T08:00:06.680Z,12.5100
2024-05-09T08:01:07.043Z,12.4728
2024-05-09T08:02:07.086Z,12.3653
2024-05-09T08:03:07.013Z,12.3920
2024-05-09T08:04:09.274Z,12.5243
2024-05-09T08:05:09.388Z,12.5316
2024-05-09T08:06:10.390Z,12.4941
2024-05-09T08:07:12.697Z,12.5669
2024-05-09T08:08:14.997Z,12.6669
2024-05-09T08:09:21.013Z,12.8505
2024-05-09T08:10:22.107Z,12.8941
2024-05-09T08:11:18.310Z,12.9060
2024-05-09T08:12:20.612Z,12.8512
2024-05-09T08:13:23.135Z,12.7827
2024-05-09T08:14:23.196Z,12.7440
2024-05-09T08:15:25.486Z,12.8864
2024-05-09T08:16:25.578Z,12.9378
2024-05-09T08:17:25.569Z,12.8090
2024-05-09T08:18:27.990Z,12.7985
2024-05-09T08:19:28.085Z,12.8238
2024-05-09T08:20:33.720Z,12.8284
2024-05-09T08:21:31.482Z,12.8707
2024-05-09T08:22:32.439Z,12.8280
2024-05-09T08:23:34.700Z,12.8297
2024-05-09T08:24:36.984Z,12.6765
2024-05-09T08:25:39.196Z,12.6475
2024-05-09T08:26:41.466Z,12.5734
2024-05-09T08:27:42.555Z,12.6535
2024-05-09T08:28:42.416Z,12.6595
2024-05-09T08:29:44.713Z,12.6635
2024-05-09T08:30:44.840Z,12.6519
2024-05-09T08:31:45.839Z,12.6316
2024-05-09T08:32:48.353Z,12.6271
2024-05-09T08:33:48.668Z,12.6176
2024-05-09T08:34:48.721Z,12.7455
2024-05-09T08:35:50.024Z,12.7000
2024-05-09T08:36:52.376Z,12.6797
2024-05-09T08:37:53.069Z,12.7205
2024-05-09T08:38:53.062Z,12.7351
2024-05-09T08:39:53.204Z,12.7273
2024-05-09T08:40:55.593Z,12.7096
2024-05-09T08:41:55.650Z,12.7816
2024-05-09T08:42:57.874Z,12.7016
2024-05-09T08:44:00.121Z,12.7764
2024-05-09T08:45:02.303Z,12.8587
2024-05-09T08:46:02.393Z,12.9422
2024-05-09T08:47:02.981Z,13.1555
2024-05-09T08:48:05.421Z,13.0908
2024-05-09T08:49:06.058Z,13.0776
2024-05-09T08:50:08.570Z,13.1099
2024-05-09T08:51:06.583Z,13.2914
2024-05-09T08:52:07.546Z,13.1562
2024-05-09T08:53:07.856Z,13.1951
2024-05-09T08:54:07.937Z,13.3599
2024-05-09T08:55:10.363Z,13.3404
2024-05-09T08:56:10.502Z,13.3449
2024-05-09T08:57:12.721Z,13.3791
2024-05-09T08:58:15.353Z,13.3957
2024-05-09T08:59:16.168Z,13.2864
2024-05-09T09:00:29.049Z,13.2529
2024-05-09T09:01:19.702Z,13.2394
2024-05-09T09:02:21.293Z,13.3212
2024-05-09T09:03:21.850Z,13.4130
2024-05-09T09:04:24.259Z,13.3253
2024-05-09T09:05:24.426Z,13.2785
2024-05-09T09:06:24.357Z,13.1915
2024-05-09T09:07:26.784Z,13.2017
2024-05-09T09:08:27.683Z,13.2948
2024-05-09T09:09:27.996Z,13.2202
2024-05-09T09:10:32.360Z,13.2978
2024-05-09T09:11:30.827Z,13.3031
2024-05-09T09:12:33.107Z,13.2810
2024-05-09T09:13:35.350Z,13.1093
2024-05-09T09:14:37.596Z,13.0588
2024-05-09T09:15:37.664Z,13.1120
2024-05-09T09:16:39.938Z,13.2001
2024-05-09T09:17:42.387Z,13.1512
2024-05-09T09:18:42.644Z,13.1240
2024-05-09T09:19:42.584Z,13.2475
2024-05-09T09:20:45.005Z,13.3069
2024-05-09T09:21:45.060Z,13.1917
2024-05-09T09:22:45.122Z,13.2114
2024-05-09T09:23:47.527Z,13.2677
2024-05-09T09:24:49.724Z,13.3756
2024-05-09T09:25:50.863Z,13.2608
2024-05-09T09:26:51.713Z,13.4352
2024-05-09T09:27:53.991Z,13.4491
2024-05-09T09:28:54.037Z,13.4702
2024-05-09T09:29:56.322Z,13.6489
2024-05-09T09:30:56.238Z,13.6618
2024-05-09T09:31:58.466Z,13.7116
2024-05-09T09:33:01.009Z,14.0045
2024-05-09T09:34:01.283Z,13.9585
2024-05-09T09:35:01.395Z,13.7595
2024-05-09T09:36:01.531Z,13.6446
2024-05-09T09:37:03.823Z,13.6170
2024-05-09T09:38:03.823Z,13.6469
2024-05-09T09:39:06.062Z,13.6465
2024-05-09T09:40:08.949Z,13.6059
2024-05-09T09:41:08.895Z,13.5376
2024-05-09T09:42:09.804Z,13.5821
2024-05-09T09:43:12.212Z,13.8950
2024-05-09T09:44:12.279Z,13.7575
2024-05-09T09:45:14.632Z,13.8499
2024-05-09T09:46:17.121Z,13.8183
2024-05-09T09:47:17.373Z,13.7711
2024-05-09T09:48:19.748Z,13.7949
2024-05-09T09:49:21.538Z,14.0081
2024-05-09T09:50:27.706Z,13.9376
2024-05-09T09:51:22.620Z,13.7716
2024-05-09T09:52:23.028Z,13.7738
2024-05-09T09:53:22.931Z,13.8436
2024-05-09T09:54:25.231Z,13.8843
2024-05-09T09:55:26.062Z,13.9582
2024-05-09T09:56:25.959Z,14.1014
2024-05-09T09:57:26.221Z,14.1317
2024-05-09T09:58:28.563Z,14.3124
2024-05-09T09:59:28.524Z,14.5280
2024-05-09T10:00:33.290Z,14.7723
2024-05-09T10:01:31.911Z,14.7625
2024-05-09T10:02:32.172Z,14.7051
2024-05-09T10:03:32.342Z,15.0859
2024-05-09T10:04:33.417Z,15.0811
2024-05-09T10:05:33.717Z,14.8428
2024-05-09T10:06:33.755Z,14.6051
2024-05-09T10:07:35.924Z,14.6351
2024-05-09T10:08:38.038Z,14.9588
2024-05-09T10:09:40.283Z,15.1253
2024-05-09T10:10:42.690Z,14.8886
2024-05-09T10:12:44.854Z,15.2829
2024-05-09T10:13:47.071Z,15.3391
2024-05-09T10:14:49.367Z,15.2829
2024-05-09T10:15:52.146Z,15.2505
2024-05-09T10:16:52.295Z,15.1347
2024-05-09T10:17:54.712Z,14.8848
2024-05-09T10:18:54.822Z,14.9897
2024-05-09T10:19:54.864Z,14.8413
2024-05-09T10:20:54.932Z,14.7114
2024-05-09T10:21:57.258Z,14.7232
2024-05-09T10:22:57.328Z,14.8024
2024-05-09T10:23:57.645Z,14.7127
2024-05-09T10:25:01.505Z,14.9424
2024-05-09T10:26:03.790Z,15.1686
2024-05-09T10:27:03.616Z,15.2888
2024-05-09T10:28:04.135Z,15.1936
2024-05-09T10:29:06.439Z,15.0621
2024-05-09T10:30:14.412Z,15.0047
2024-05-09T10:31:09.701Z,15.0658
2024-05-09T10:32:11.920Z,15.0882
2024-05-09T10:33:13.008Z,15.1523
2024-05-09T10:34:13.172Z,15.1383
2024-05-09T10:35:13.146Z,15.0859
2024-05-09T10:36:13.319Z,15.2220
2024-05-09T10:37:15.695Z,15.1359
2024-05-09T10:38:15.637Z,15.6067
2024-05-09T10:39:16.014Z,15.8080
2024-05-09T10:40:25.778Z,15.2213
2024-05-09T10:41:19.112Z,14.7982
2024-05-09T10:42:21.311Z,14.9321
2024-05-09T10:43:21.336Z,15.0251
2024-05-09T10:44:21.153Z,14.7664
2024-05-09T10:45:23.487Z,14.8098
2024-05-09T10:46:25.759Z,14.6925
2024-05-09T10:47:28.199Z,14.6699
2024-05-09T10:48:29.323Z,15.0115
2024-05-09T10:49:29.267Z,15.0773
2024-05-09T10:50:34.238Z,14.8980
2024-05-09T10:51:33.226Z,14.9330
2024-05-09T10:52:35.519Z,15.0507
2024-05-09T10:53:37.859Z,15.0734
2024-05-09T10:54:37.894Z,15.1987
2024-05-09T10:55:37.881Z,15.5045
2024-05-09T10:56:37.768Z,15.7503
2024-05-09T10:57:39.986Z,15.3409
2024-05-09T10:58:42.401Z,15.3867
2024-05-09T10:59:42.371Z,15.2943
2024-05-09T11:00:44.794Z,15.4502
2024-05-09T11:01:45.018Z,15.3249
2024-05-09T11:02:45.053Z,15.4526
2024-05-09T11:03:47.572Z,15.5520
2024-05-09T11:04:47.951Z,15.6533
2024-05-09T11:05:47.997Z,15.8242
2024-05-09T11:06:48.073Z,15.5891
2024-05-09T11:07:50.570Z,15.6649
2024-05-09T11:08:50.486Z,15.8592
2024-05-09T11:09:52.903Z,15.6814
2024-05-09T11:10:53.039Z,15.7525
2024-05-09T11:11:53.226Z,15.8543
2024-05-09T11:12:53.293Z,15.8426
2024-05-09T11:13:55.546Z,16.2299
2024-05-09T11:14:57.860Z,15.8950
2024-05-09T11:16:00.179Z,15.8696
2024-05-09T11:17:00.276Z,16.0321
2024-05-09T11:18:02.782Z,15.6690
2024-05-09T11:19:04.916Z,15.7170
2024-05-09T11:20:10.773Z,16.0359
2024-05-09T11:21:06.106Z,16.3593
2024-05-09T11:22:08.570Z,16.2464
2024-05-09T11:23:08.578Z,16.2634
2024-05-09T11:24:11.482Z,16.9538
2024-05-09T11:25:11.853Z,16.8812
2024-05-09T11:26:12.590Z,16.8670
2024-05-09T11:27:12.522Z,16.4904
2024-05-09T11:28:15.046Z,16.6560
2024-05-09T11:29:17.935Z,16.1988
2024-05-09T11:30:24.190Z,16.2354
2024-05-09T11:31:18.255Z,16.1228
2024-05-09T11:32:18.302Z,16.0308
2024-05-09T11:33:19.220Z,16.1580
2024-05-09T11:34:19.373Z,16.0295
2024-05-09T11:35:19.637Z,15.9973
2024-05-09T11:36:19.555Z,15.9325
2024-05-09T11:37:19.635Z,16.2024
2024-05-09T11:38:19.584Z,15.9865
2024-05-09T11:39:21.779Z,16.0497
2024-05-09T11:40:26.035Z,16.0511
2024-05-09T11:41:25.076Z,16.1235
2024-05-09T11:42:25.206Z,16.4349
2024-05-09T11:43:25.475Z,16.3745
2024-05-09T11:44:25.341Z,16.5771
2024-05-09T11:45:27.554Z,16.5280
2024-05-09T11:46:29.703Z,16.7637
2024-05-09T11:47:32.075Z,16.7980
2024-05-09T11:48:32.331Z,16.3897
2024-05-09T11:49:32.613Z,16.0588
2024-05-09T11:50:35.498Z,16.4419
2024-05-09T11:51:33.432Z,16.2638
2024-05-09T11:52:35.665Z,16.4903
2024-05-09T11:53:37.818Z,16.2930
2024-05-09T11:54:40.114Z,16.2564
2024-05-09T11:55:42.284Z,16.2246
2024-05-09T11:56:44.513Z,15.9128
2024-05-09T11:57:46.848Z,15.7127
2024-05-09T11:58:47.136Z,15.8341
2024-05-09T11:59:50.061Z,15.6990
2024-05-09T12:00:50.044Z,15.6812
2024-05-09T12:01:50.295Z,15.7317
2024-05-09T12:02:50.318Z,15.8057
2024-05-09T12:03:52.743Z,15.5460
2024-05-09T12:04:52.814Z,15.5540
2024-05-09T12:05:55.060Z,15.7651
2024-05-09T12:06:57.326Z,15.8654
2024-05-09T12:07:59.450Z,15.8368
2024-05-09T12:09:01.622Z,15.7796
2024-05-09T12:10:06.080Z,15.9226
2024-05-09T12:11:05.753Z,16.6036
2024-05-09T12:12:08.038Z,16.4836
2024-05-09T12:13:10.400Z,16.6360
2024-05-09T12:14:12.676Z,17.0335
2024-05-09T12:15:14.996Z,16.8995
2024-05-09T12:16:17.301Z,16.7202
2024-05-09T12:17:19.609Z,16.4933
2024-05-09T12:18:21.801Z,16.3391
2024-05-09T12:19:24.049Z,16.5673
2024-05-09T12:20:34.727Z,16.7000
2024-05-09T12:21:27.285Z,16.3527
2024-05-09T12:22:29.455Z,16.6720
2024-05-09T12:23:31.641Z,16.5622
2024-05-09T12:24:33.872Z,16.4424
2024-05-09T12:25:36.970Z,16.8718
2024-05-09T12:26:39.133Z,17.0122